»·PEaware :: N242SK KSBA-KPSP

N242SK :: KSBA-KPSP

FLIGHT INFORMATION

Flight Status: Arrived
Operator: Privately registered:
United States
More flights under this callsign
Pilot: Sanjiv S. (4490)
Aircraft: SOCATA TBM-900
(TBM9)
More flights by this aircraft type
Origin: KSBA Santa Barbara Mun
United States
Destination: KPSP Palm Springs Intl
United States
More flights between these airports :: More routes between these airports
Route: +FIM V186 ITSME V264 POM V197 PDZ V186 NIKKL V64 TRM PSP
File this flight plan on PilotEdge
Remarks: SBAP36 TEC Route
Altitude:
(Current/Filed)
11,000ft
Speed:
(Current/Filed)
240kts
Departed: 06-Nov-18 07:57 PM
Arrived: 06-Nov-18 09:11 PM
Distance/Time
Traveled:
169nm/1:14
Distance/Time
To Go:
Arrived

Flight Plot

Page will automatically refresh every two minutes.


Map Options




Map Legend


Flown Route
Filed Route
Departure Airport
Arrival Airport
Navaid (VOR, NDB)
Fix

Horizontal Profiles

Position Reports

Time Latitude Longitude Heading Altitude Ground
Speed
06-Nov-18 19:38 34.423089 -119.836094 161 16ft 0kts
06-Nov-18 19:39 34.423089 -119.836094 161 16ft 0kts
06-Nov-18 19:40 34.423089 -119.836094 161 16ft 0kts
06-Nov-18 19:41 34.423089 -119.836094 161 16ft 0kts
06-Nov-18 19:42 34.423089 -119.836094 161 16ft 0kts
06-Nov-18 19:43 34.423089 -119.836094 161 16ft 0kts
06-Nov-18 19:44 34.423089 -119.836094 161 16ft 0kts
06-Nov-18 19:45 34.423089 -119.836094 161 16ft 0kts
06-Nov-18 19:46 34.423089 -119.836094 161 16ft 0kts
06-Nov-18 19:47 34.423089 -119.836094 161 16ft 0kts
06-Nov-18 19:48 34.423089 -119.836094 161 16ft 0kts
06-Nov-18 19:49 34.423089 -119.836094 161 16ft 0kts
06-Nov-18 19:50 34.422787 -119.835971 161 16ft 0kts
06-Nov-18 19:51 34.422787 -119.835971 161 16ft 0kts
06-Nov-18 19:52 34.422787 -119.835971 161 16ft 0kts
06-Nov-18 19:53 34.422861 -119.835882 311 16ft 5kts
06-Nov-18 19:54 34.423376 -119.837347 355 16ft 9kts
06-Nov-18 19:55 34.426729 -119.837915 93 16ft 8kts
06-Nov-18 19:56 34.427168 -119.834625 356 16ft 0kts
06-Nov-18 19:57 34.427168 -119.834625 356 16ft 0kts
06-Nov-18 19:58 34.427168 -119.834625 356 16ft 0kts
06-Nov-18 19:59 34.427879 -119.835452 265 16ft 13kts
06-Nov-18 20:00 34.425740 -119.870096 260 537ft 143kts
06-Nov-18 20:01 34.419889 -119.920733 262 1988ft 167kts
06-Nov-18 20:02 34.413086 -119.979545 262 2996ft 191kts
06-Nov-18 20:03 34.380748 -120.000026 154 3778ft 149kts
06-Nov-18 20:04 34.349747 -119.980279 154 5406ft 134kts
06-Nov-18 20:05 34.314227 -119.957436 154 6878ft 161kts
06-Nov-18 20:06 34.280491 -119.920585 136 8278ft 174kts
06-Nov-18 20:07 34.267954 -119.872312 73 9646ft 170kts
06-Nov-18 20:08 34.275009 -119.817337 78 10792ft 196kts
06-Nov-18 20:09 34.281564 -119.748349 79 10987ft 240kts
06-Nov-18 20:10 34.288362 -119.672881 80 10981ft 264kts
06-Nov-18 20:11 34.295185 -119.596397 80 10978ft 269kts
06-Nov-18 20:12 34.302473 -119.514152 80 10979ft 270kts
06-Nov-18 20:13 34.309060 -119.439297 80 10980ft 270kts
06-Nov-18 20:14 34.315908 -119.360907 80 10982ft 270kts
06-Nov-18 20:15 34.321026 -119.301921 80 10981ft 270kts
06-Nov-18 20:16 34.327406 -119.227922 80 10985ft 270kts
06-Nov-18 20:17 34.333376 -119.158214 80 10990ft 269kts
06-Nov-18 20:18 34.339248 -119.089188 80 10986ft 269kts
06-Nov-18 20:19 34.343589 -119.039021 84 11000ft 265kts
06-Nov-18 20:20 34.349417 -118.966969 80 10998ft 266kts
06-Nov-18 20:21 34.355812 -118.891940 81 11001ft 270kts
06-Nov-18 20:22 34.334138 -118.814748 111 11001ft 276kts
06-Nov-18 20:23 34.306748 -118.734677 110 10999ft 276kts
06-Nov-18 20:24 34.277839 -118.650132 110 10996ft 276kts
06-Nov-18 20:25 34.251676 -118.573735 110 10993ft 275kts
06-Nov-18 20:26 34.222707 -118.489167 108 10992ft 275kts
06-Nov-18 20:27 34.197015 -118.404285 109 10994ft 277kts
06-Nov-18 20:28 34.176143 -118.335620 110 10991ft 278kts
06-Nov-18 20:29 34.154578 -118.264775 109 10992ft 277kts
06-Nov-18 20:30 34.127918 -118.177382 109 10987ft 278kts
06-Nov-18 20:31 34.102578 -118.094573 109 10990ft 277kts
06-Nov-18 20:32 34.081695 -118.026527 109 10993ft 277kts
06-Nov-18 20:33 34.075732 -117.954156 86 10997ft 275kts
06-Nov-18 20:34 34.076989 -117.880289 86 10998ft 275kts
06-Nov-18 20:35 34.078096 -117.806892 86 11000ft 275kts
06-Nov-18 20:36 34.041083 -117.726958 126 10996ft 278kts
06-Nov-18 20:37 34.001331 -117.663077 126 10993ft 278kts
06-Nov-18 20:38 33.965368 -117.605350 126 10992ft 278kts
06-Nov-18 20:39 33.928794 -117.546737 126 10993ft 278kts
06-Nov-18 20:40 33.886340 -117.503000 145 10993ft 277kts
06-Nov-18 20:41 33.829257 -117.455270 145 10994ft 277kts
06-Nov-18 20:42 33.777707 -117.412120 145 10997ft 277kts
06-Nov-18 20:43 33.731192 -117.363245 105 10981ft 276kts
06-Nov-18 20:44 33.724091 -117.288203 93 10999ft 274kts
06-Nov-18 20:45 33.718781 -117.222302 93 10999ft 274kts
06-Nov-18 20:46 33.712215 -117.141552 93 10999ft 274kts
06-Nov-18 20:47 33.706695 -117.074119 93 10990ft 274kts
06-Nov-18 20:48 33.701225 -117.007838 94 10973ft 274kts
06-Nov-18 20:49 33.695885 -116.943501 94 10955ft 273kts
06-Nov-18 20:50 33.689825 -116.871054 94 10991ft 271kts
06-Nov-18 20:51 33.683403 -116.794934 94 10986ft 262kts
06-Nov-18 20:52 33.677220 -116.722127 94 10974ft 223kts
06-Nov-18 20:53 33.672749 -116.669731 94 10983ft 206kts
06-Nov-18 20:54 33.668106 -116.615587 94 10986ft 199kts
06-Nov-18 20:55 33.663347 -116.560392 94 10980ft 197kts
06-Nov-18 20:56 33.659271 -116.513334 94 10974ft 196kts
06-Nov-18 20:57 33.653114 -116.442657 94 10838ft 202kts
06-Nov-18 20:58 33.648327 -116.388011 94 9676ft 217kts
06-Nov-18 20:59 33.649022 -116.329659 47 8303ft 209kts
06-Nov-18 21:00 33.686259 -116.297213 33 6932ft 206kts
06-Nov-18 21:01 33.724804 -116.283890 317 5238ft 186kts
06-Nov-18 21:02 33.740787 -116.315850 300 4043ft 176kts
06-Nov-18 21:03 33.751099 -116.341604 291 3583ft 134kts
06-Nov-18 21:04 33.753964 -116.363822 262 2758ft 119kts
06-Nov-18 21:05 33.749204 -116.390992 272 2035ft 118kts
06-Nov-18 21:06 33.755859 -116.411866 294 1656ft 122kts
06-Nov-18 21:07 33.763776 -116.431024 308 1434ft 119kts
06-Nov-18 21:08 33.773648 -116.449393 304 1189ft 118kts
06-Nov-18 21:09 33.782863 -116.466526 322 1086ft 111kts
06-Nov-18 21:10 33.795321 -116.477506 324 1038ft 89kts
06-Nov-18 21:11 33.805734 -116.486584 326 852ft 89kts
06-Nov-18 21:12 33.816085 -116.495641 325 623ft 92kts
06-Nov-18 21:13 33.825946 -116.504434 327 480ft 65kts
06-Nov-18 21:14 33.827807 -116.507189 182 480ft 0kts
06-Nov-18 21:15 33.827474 -116.507194 180 480ft 8kts
06-Nov-18 21:16 33.825361 -116.507416 261 480ft 11kts
06-Nov-18 21:17 33.825251 -116.508209 28 480ft 0kts
06-Nov-18 21:18 33.825251 -116.508209 28 480ft 0kts
06-Nov-18 21:19 33.825251 -116.508209 28 480ft 0kts
06-Nov-18 21:20 33.825251 -116.508209 28 480ft 0kts
06-Nov-18 21:21 33.825251 -116.508209 28 480ft 0kts

Navigation Log

Ident Type
Flight plan parsing failed, navigation log unavailable